Time;durP1;ratioP1;P1;durP2;ratioP2;P2;SDS_P1;SDS_P2;PMS_P1;PMS_P2;Temp;Humidity;BMP_temperature;BMP_pressure;BME280_temperature;BME280_humidity;BME280_pressure;Samples;Min_cycle;Max_cycle;Signal;HPM_P1;HPM_P2
2021/09/12 00:00:35;;;;;;;26.42;16.20;;;18.40;99.90;;;;;;5064106;28;20035;-67
2021/09/12 00:03:01;;;;;;;22.88;15.38;;;18.50;99.90;;;;;;5063999;28;20025;-67
2021/09/12 00:05:27;;;;;;;25.08;16.92;;;18.50;99.90;;;;;;5063099;28;20086;-67
2021/09/12 00:07:52;;;;;;;21.67;15.35;;;18.40;99.90;;;;;;5062798;28;20056;-67
2021/09/12 00:10:18;;;;;;;25.85;16.48;;;18.40;99.90;;;;;;5064061;28;20115;-67
2021/09/12 00:12:44;;;;;;;25.85;17.05;;;18.40;99.90;;;;;;5062450;28;20510;-67
2021/09/12 00:15:11;;;;;;;24.10;15.48;;;18.40;99.90;;;;;;5061880;28;20055;-67
2021/09/12 00:17:37;;;;;;;22.98;15.93;;;18.40;99.90;;;;;;5063358;28;20064;-67
2021/09/12 00:20:04;;;;;;;24.30;16.92;;;18.40;99.90;;;;;;5060036;28;20091;-67
2021/09/12 00:22:29;;;;;;;23.98;16.65;;;18.40;99.90;;;;;;5063095;28;20056;-67
2021/09/12 00:24:55;;;;;;;24.42;16.70;;;18.40;99.90;;;;;;5062044;28;20059;-67
2021/09/12 00:27:21;;;;;;;25.38;16.50;;;18.40;99.90;;;;;;5060795;28;20743;-67
2021/09/12 00:29:46;;;;;;;27.17;16.48;;;18.40;99.90;;;;;;5062948;28;20040;-67
2021/09/12 00:32:12;;;;;;;24.50;16.15;;;18.40;99.90;;;;;;5061811;28;20590;-67
2021/09/12 00:34:38;;;;;;;25.08;15.40;;;18.30;99.90;;;;;;5062625;28;20062;-67
2021/09/12 00:37:04;;;;;;;22.83;15.60;;;18.40;99.90;;;;;;5062127;28;20032;-67
2021/09/12 00:39:29;;;;;;;24.42;16.50;;;18.30;99.90;;;;;;5061651;28;20040;-66
2021/09/12 00:41:55;;;;;;;28.15;16.48;;;18.30;99.90;;;;;;5062214;28;20024;-67
2021/09/12 00:44:23;;;;;;;23.30;16.52;;;18.30;99.90;;;;;;5061899;28;20111;-67
2021/09/12 00:46:51;;;;;;;23.88;16.17;;;18.30;99.90;;;;;;5062152;28;20024;-67
2021/09/12 00:49:18;;;;;;;27.55;18.13;;;18.30;99.90;;;;;;5062060;28;20028;-67
2021/09/12 00:51:44;;;;;;;25.83;17.38;;;18.40;99.90;;;;;;5062769;28;20082;-67
2021/09/12 00:54:10;;;;;;;27.25;17.60;;;18.30;99.90;;;;;;5060211;28;20479;-67
2021/09/12 00:56:40;;;;;;;24.95;17.63;;;18.30;99.90;;;;;;5063022;28;20036;-67
2021/09/12 00:59:11;;;;;;;26.15;17.45;;;18.30;99.90;;;;;;5061248;28;20037;-67
2021/09/12 01:01:40;;;;;;;27.33;17.83;;;18.30;99.90;;;;;;5062463;28;20036;-66
2021/09/12 01:04:06;;;;;;;28.90;18.52;;;18.30;99.90;;;;;;5061274;28;20033;-67
2021/09/12 01:06:32;;;;;;;25.45;16.63;;;18.30;99.90;;;;;;5059457;28;20044;-67
2021/09/12 01:09:01;;;;;;;26.13;18.23;;;18.30;99.90;;;;;;5061990;28;20055;-67
2021/09/12 01:11:27;;;;;;;27.63;18.60;;;18.30;99.90;;;;;;5059914;28;20215;-67
2021/09/12 01:13:53;;;;;;;27.98;18.08;;;18.30;99.90;;;;;;5062068;28;20036;-67
2021/09/12 01:16:20;;;;;;;25.80;17.00;;;18.30;99.90;;;;;;5061283;28;20036;-67
2021/09/12 01:18:47;;;;;;;24.98;17.63;;;18.30;99.90;;;;;;5061337;28;20024;-67
2021/09/12 01:21:15;;;;;;;27.50;18.80;;;18.30;99.90;;;;;;5060645;28;20486;-67
2021/09/12 01:23:42;;;;;;;30.92;19.25;;;18.30;99.90;;;;;;5060069;28;20113;-67
2021/09/12 01:26:08;;;;;;;30.15;19.42;;;18.20;99.90;;;;;;5061058;28;20025;-67
2021/09/12 01:28:38;;;;;;;27.73;18.77;;;18.30;99.90;;;;;;5061211;28;20029;-68
2021/09/12 01:31:04;;;;;;;30.25;19.77;;;18.30;99.90;;;;;;5061197;28;20498;-68
2021/09/12 01:33:29;;;;;;;27.88;20.15;;;18.30;99.90;;;;;;5060600;28;20025;-67
2021/09/12 01:35:55;;;;;;;28.83;20.35;;;18.30;99.90;;;;;;5061849;28;20028;-67
2021/09/12 01:38:21;;;;;;;29.55;19.30;;;18.20;99.90;;;;;;5058875;28;20032;-66
2021/09/12 01:40:47;;;;;;;28.83;19.88;;;18.30;99.90;;;;;;5060444;28;20043;-67
2021/09/12 01:43:12;;;;;;;29.73;20.00;;;18.30;99.90;;;;;;5062495;28;20029;-67
2021/09/12 01:45:38;;;;;;;30.23;19.58;;;18.30;99.90;;;;;;5060828;28;20100;-67
2021/09/12 01:48:04;;;;;;;27.52;19.85;;;18.30;99.90;;;;;;5061848;28;20104;-67
2021/09/12 01:50:30;;;;;;;29.33;20.98;;;18.30;99.90;;;;;;5061638;28;20043;-67
2021/09/12 01:52:56;;;;;;;27.52;19.23;;;18.30;99.90;;;;;;5060076;28;20044;-67
2021/09/12 01:55:21;;;;;;;30.98;18.92;;;18.20;99.90;;;;;;5060992;28;20037;-67
2021/09/12 01:57:47;;;;;;;31.90;19.83;;;18.30;99.90;;;;;;5059903;28;20028;-67
2021/09/12 02:00:13;;;;;;;33.42;21.13;;;18.20;99.90;;;;;;5060274;28;20114;-67
2021/09/12 02:02:39;;;;;;;28.63;18.65;;;18.20;99.90;;;;;;5058105;28;20029;-67
2021/09/12 02:05:06;;;;;;;34.67;20.75;;;18.20;99.90;;;;;;5061376;28;20021;-67
2021/09/12 02:07:32;;;;;;;31.48;20.92;;;18.20;99.90;;;;;;5059772;28;20107;-66
2021/09/12 02:09:58;;;;;;;29.23;20.52;;;18.20;99.90;;;;;;5060849;28;20028;-67
2021/09/12 02:12:24;;;;;;;34.03;20.42;;;18.20;99.90;;;;;;5059547;28;20098;-67
2021/09/12 02:14:50;;;;;;;32.65;21.17;;;18.20;99.90;;;;;;5059405;28;20482;-67
2021/09/12 02:17:16;;;;;;;37.17;21.45;;;18.20;99.90;;;;;;5060673;28;20103;-67
2021/09/12 02:19:42;;;;;;;31.85;20.88;;;18.10;99.90;;;;;;5061413;28;20036;-67
2021/09/12 02:22:08;;;;;;;28.90;20.98;;;18.10;99.90;;;;;;5059835;28;20030;-67
2021/09/12 02:24:36;;;;;;;37.10;22.75;;;18.10;99.90;;;;;;5062169;28;20020;-67
2021/09/12 02:27:01;;;;;;;31.48;21.42;;;18.10;99.90;;;;;;5060184;28;20104;-68
2021/09/12 02:29:27;;;;;;;32.33;22.15;;;18.10;99.90;;;;;;5062239;28;20070;-67
2021/09/12 02:31:53;;;;;;;32.35;22.52;;;18.10;99.90;;;;;;5060613;28;20101;-67
2021/09/12 02:34:19;;;;;;;35.53;22.90;;;18.10;99.90;;;;;;5062149;28;20041;-67
2021/09/12 02:36:45;;;;;;;34.08;21.38;;;18.10;99.90;;;;;;5062546;28;20029;-67
2021/09/12 02:39:11;;;;;;;32.97;22.13;;;18.10;99.90;;;;;;5059575;28;20024;-67
2021/09/12 02:41:37;;;;;;;31.63;20.10;;;18.10;99.90;;;;;;5060788;28;20036;-68
2021/09/12 02:44:03;;;;;;;34.00;21.27;;;18.10;99.90;;;;;;5059918;28;20033;-67
2021/09/12 02:46:29;;;;;;;34.70;22.25;;;18.10;99.90;;;;;;5061605;28;20533;-67
2021/09/12 02:48:55;;;;;;;32.08;21.45;;;18.10;99.90;;;;;;5060126;28;20025;-67
2021/09/12 02:51:20;;;;;;;30.45;20.77;;;18.10;99.90;;;;;;5060054;28;20519;-67
2021/09/12 02:53:46;;;;;;;35.45;23.00;;;18.10;99.90;;;;;;5059515;28;20032;-67
2021/09/12 02:56:12;;;;;;;32.70;21.15;;;18.10;99.90;;;;;;5060464;28;20588;-67
2021/09/12 02:58:37;;;;;;;35.70;22.75;;;18.10;99.90;;;;;;5058626;28;20398;-67
2021/09/12 03:01:03;;;;;;;34.33;23.35;;;18.10;99.90;;;;;;5060400;28;20410;-67
2021/09/12 03:03:29;;;;;;;37.25;23.88;;;18.10;99.90;;;;;;5060363;28;20024;-67
2021/09/12 03:05:55;;;;;;;33.58;22.40;;;18.10;99.90;;;;;;5056580;28;20386;-67
2021/09/12 03:08:21;;;;;;;35.97;23.77;;;18.10;99.90;;;;;;5059393;28;20402;-67
2021/09/12 03:10:47;;;;;;;41.08;25.65;;;18.10;99.90;;;;;;5058546;28;20032;-67
2021/09/12 03:13:13;;;;;;;35.15;22.77;;;18.10;99.90;;;;;;5060149;28;20040;-68
2021/09/12 03:15:39;;;;;;;38.42;25.02;;;18.10;99.90;;;;;;5060195;28;20039;-67
2021/09/12 03:18:05;;;;;;;40.28;25.15;;;18.10;99.90;;;;;;5057553;28;20315;-68
2021/09/12 03:20:31;;;;;;;34.95;23.42;;;18.00;99.90;;;;;;5060757;28;20029;-68
2021/09/12 03:22:57;;;;;;;34.53;23.08;;;18.00;99.90;;;;;;5059513;28;20036;-67
2021/09/12 03:25:22;;;;;;;39.80;25.48;;;18.10;99.90;;;;;;5058613;28;20033;-68
2021/09/12 03:27:51;;;;;;;35.50;22.92;;;18.00;99.90;;;;;;5064090;28;20025;-67
2021/09/12 03:30:17;;;;;;;31.33;22.08;;;18.10;99.90;;;;;;5060928;28;20175;-67
2021/09/12 03:32:42;;;;;;;36.25;23.80;;;18.10;99.90;;;;;;5063754;28;20503;-67
2021/09/12 03:35:08;;;;;;;36.15;23.48;;;18.00;99.90;;;;;;5062565;28;20062;-67
2021/09/12 03:37:34;;;;;;;37.40;24.02;;;18.00;99.90;;;;;;5061898;28;20029;-68
2021/09/12 03:40:00;;;;;;;35.00;23.48;;;18.00;99.90;;;;;;5064894;28;20029;-67
2021/09/12 03:42:25;;;;;;;34.38;23.27;;;17.90;99.90;;;;;;5064025;28;20117;-67
2021/09/12 03:44:51;;;;;;;37.83;24.20;;;17.90;99.90;;;;;;5061534;28;20025;-68
2021/09/12 03:47:17;;;;;;;36.58;23.45;;;17.90;99.90;;;;;;5061679;28;20094;-67
2021/09/12 03:49:43;;;;;;;34.33;23.23;;;17.90;99.90;;;;;;5061816;28;20039;-67
2021/09/12 03:52:09;;;;;;;36.55;22.88;;;17.90;99.90;;;;;;5063537;28;20536;-67
2021/09/12 03:54:35;;;;;;;34.30;23.88;;;17.90;99.90;;;;;;5060836;28;20033;-67
2021/09/12 03:57:01;;;;;;;34.55;23.73;;;17.80;99.90;;;;;;5062876;28;20368;-67
2021/09/12 03:59:26;;;;;;;40.58;25.52;;;17.80;99.90;;;;;;5062787;28;20036;-66
2021/09/12 04:01:52;;;;;;;37.70;25.10;;;17.80;99.90;;;;;;5064782;28;20064;-67
2021/09/12 04:04:18;;;;;;;36.20;24.02;;;17.80;99.90;;;;;;5063241;28;20388;-67
2021/09/12 04:06:44;;;;;;;41.15;24.92;;;17.70;99.90;;;;;;5063865;28;20421;-67
2021/09/12 04:09:09;;;;;;;33.47;22.85;;;17.70;99.90;;;;;;5062842;28;20044;-67
2021/09/12 04:11:35;;;;;;;34.92;22.10;;;17.70;99.90;;;;;;5062787;28;20458;-67
2021/09/12 04:14:01;;;;;;;37.17;24.83;;;17.70;99.90;;;;;;5061376;28;20086;-67
2021/09/12 04:16:27;;;;;;;37.25;23.17;;;17.60;99.90;;;;;;5062066;28;20501;-68
2021/09/12 04:18:53;;;;;;;36.42;24.55;;;17.60;99.90;;;;;;5060842;28;20533;-67
2021/09/12 04:21:18;;;;;;;38.55;26.05;;;17.70;99.90;;;;;;5062610;28;20343;-67
2021/09/12 04:23:44;;;;;;;36.40;24.15;;;17.70;99.90;;;;;;5062989;28;20031;-67
2021/09/12 04:26:09;;;;;;;34.65;23.85;;;17.70;99.90;;;;;;5061531;28;20108;-67
2021/09/12 04:28:35;;;;;;;40.45;24.02;;;17.70;99.90;;;;;;5063326;28;20552;-67
2021/09/12 04:31:01;;;;;;;37.92;23.48;;;17.70;99.90;;;;;;5063371;28;20063;-67
2021/09/12 04:33:27;;;;;;;38.03;24.23;;;17.70;99.90;;;;;;5063249;28;20497;-68
2021/09/12 04:35:53;;;;;;;39.20;24.65;;;17.70;99.90;;;;;;5061820;28;20098;-67
2021/09/12 04:38:18;;;;;;;37.70;23.88;;;17.70;99.90;;;;;;5062659;28;20510;-67
2021/09/12 04:40:44;;;;;;;38.50;25.02;;;17.70;99.90;;;;;;5061883;28;20032;-68
2021/09/12 04:43:10;;;;;;;35.30;24.58;;;17.70;99.90;;;;;;5061275;28;20099;-67
2021/09/12 04:45:35;;;;;;;35.58;24.50;;;17.70;99.90;;;;;;5061918;28;20064;-68
2021/09/12 04:48:01;;;;;;;35.92;23.80;;;17.70;99.90;;;;;;5062138;28;20100;-67
2021/09/12 04:50:27;;;;;;;36.05;23.20;;;17.70;99.90;;;;;;5062667;28;20040;-67
2021/09/12 04:52:52;;;;;;;34.85;23.23;;;17.70;99.90;;;;;;5060378;28;20037;-67
2021/09/12 04:55:18;;;;;;;37.17;23.75;;;17.80;99.90;;;;;;5063137;28;20119;-68
2021/09/12 04:57:44;;;;;;;34.88;23.98;;;17.80;99.90;;;;;;5062010;28;20043;-68
2021/09/12 05:00:11;;;;;;;36.75;23.95;;;17.80;99.90;;;;;;5059599;28;20373;-67
2021/09/12 05:02:36;;;;;;;35.45;24.25;;;17.80;99.90;;;;;;5060024;28;20506;-67
2021/09/12 05:05:02;;;;;;;35.55;23.48;;;17.80;99.90;;;;;;5061452;28;20044;-67
2021/09/12 05:07:28;;;;;;;33.63;22.80;;;17.80;99.90;;;;;;5063764;28;20063;-67
2021/09/12 05:09:54;;;;;;;40.58;24.08;;;17.80;99.90;;;;;;5060512;28;20020;-67
2021/09/12 05:12:19;;;;;;;36.15;24.30;;;17.80;99.90;;;;;;5062054;28;20037;-67
2021/09/12 05:14:45;;;;;;;35.80;23.25;;;17.80;99.90;;;;;;5062498;28;20036;-67
2021/09/12 05:17:11;;;;;;;33.55;22.52;;;17.80;99.90;;;;;;5062134;28;20090;-67
2021/09/12 05:19:37;;;;;;;38.55;24.73;;;17.80;99.90;;;;;;5065619;28;20040;-68
2021/09/12 05:22:02;;;;;;;35.53;23.25;;;17.80;99.90;;;;;;5061518;28;20298;-67
2021/09/12 05:24:28;;;;;;;35.40;24.10;;;17.80;99.90;;;;;;5061357;28;20430;-67
2021/09/12 05:26:54;;;;;;;36.40;24.23;;;17.80;99.90;;;;;;5064312;28;20055;-68
2021/09/12 05:29:22;;;;;;;39.58;25.52;;;17.90;99.90;;;;;;5060605;28;20142;-67
2021/09/12 05:31:48;;;;;;;35.72;23.75;;;17.80;99.90;;;;;;5064349;28;20111;-67
2021/09/12 05:34:14;;;;;;;37.42;23.73;;;17.80;99.90;;;;;;5061698;28;20100;-67
2021/09/12 05:36:40;;;;;;;34.95;22.63;;;17.80;99.90;;;;;;5061434;28;20478;-67
2021/09/12 05:39:05;;;;;;;38.67;24.00;;;17.80;99.90;;;;;;5061344;28;20021;-67
2021/09/12 05:41:31;;;;;;;38.17;24.85;;;17.90;99.90;;;;;;5061882;28;20033;-67
2021/09/12 05:43:57;;;;;;;37.67;25.23;;;17.90;99.90;;;;;;5063827;28;20021;-67
2021/09/12 05:46:22;;;;;;;33.30;22.95;;;17.80;99.90;;;;;;5061941;28;20028;-67
2021/09/12 05:48:48;;;;;;;37.67;25.80;;;17.80;99.90;;;;;;5059079;28;20355;-67
2021/09/12 05:51:14;;;;;;;37.28;23.63;;;17.90;99.90;;;;;;5061224;28;20029;-68
2021/09/12 05:53:40;;;;;;;35.35;23.27;;;17.90;99.90;;;;;;5061386;28;20050;-67
2021/09/12 05:56:05;;;;;;;36.53;23.63;;;17.90;99.90;;;;;;5061418;28;20056;-68
2021/09/12 05:58:31;;;;;;;37.00;23.95;;;17.90;99.90;;;;;;5060686;28;20071;-68
2021/09/12 06:00:57;;;;;;;38.22;24.45;;;17.90;99.90;;;;;;5059099;28;20083;-68
2021/09/12 06:03:22;;;;;;;34.95;23.20;;;17.90;99.90;;;;;;5061782;28;20108;-67
2021/09/12 06:05:48;;;;;;;34.50;23.20;;;18.00;99.90;;;;;;5062108;28;20040;-67
2021/09/12 06:08:14;;;;;;;37.00;23.85;;;18.00;99.90;;;;;;5061209;28;20033;-67
2021/09/12 06:10:39;;;;;;;33.40;22.48;;;18.00;99.90;;;;;;5059545;28;20037;-67
2021/09/12 06:13:05;;;;;;;41.30;25.38;;;17.90;99.90;;;;;;5060626;28;20028;-67
2021/09/12 06:15:31;;;;;;;34.75;22.52;;;17.90;99.90;;;;;;5060982;28;20032;-67
2021/09/12 06:17:56;;;;;;;32.42;22.92;;;18.00;99.90;;;;;;5060450;28;20450;-67
2021/09/12 06:20:22;;;;;;;34.45;23.52;;;18.00;99.90;;;;;;5060703;28;20497;-67
2021/09/12 06:22:51;;;;;;;35.85;22.95;;;18.00;99.90;;;;;;5062136;28;20398;-67
2021/09/12 06:25:17;;;;;;;31.88;22.10;;;18.10;99.90;;;;;;5063057;28;20581;-67
2021/09/12 06:27:43;;;;;;;32.45;22.77;;;18.10;99.90;;;;;;5061166;28;20112;-67
2021/09/12 06:30:10;;;;;;;36.60;23.75;;;18.10;99.90;;;;;;5060978;28;20124;-67
2021/09/12 06:32:36;;;;;;;34.97;22.73;;;18.10;99.90;;;;;;5062568;28;20032;-67
2021/09/12 06:35:02;;;;;;;38.00;24.13;;;18.10;99.90;;;;;;5063864;28;20035;-67
2021/09/12 06:37:28;;;;;;;34.75;23.15;;;18.10;99.90;;;;;;5062731;28;20043;-67
2021/09/12 06:39:54;;;;;;;30.52;21.58;;;18.10;99.90;;;;;;5065856;28;20037;-67
2021/09/12 06:42:20;;;;;;;39.90;23.65;;;18.10;99.90;;;;;;5064955;28;20479;-67
2021/09/12 06:44:46;;;;;;;36.00;23.75;;;18.10;99.90;;;;;;5059947;28;20032;-67
2021/09/12 06:47:12;;;;;;;37.63;23.98;;;18.10;99.90;;;;;;5062933;28;20025;-67
2021/09/12 06:49:37;;;;;;;32.28;21.30;;;18.00;99.90;;;;;;5061067;28;20033;-67
2021/09/12 06:52:04;;;;;;;29.95;21.20;;;18.00;99.90;;;;;;5063515;28;20043;-67
2021/09/12 06:54:30;;;;;;;31.30;21.27;;;18.10;99.90;;;;;;5062859;28;20036;-67
2021/09/12 06:56:55;;;;;;;31.77;21.45;;;18.20;99.90;;;;;;5064702;28;20039;-67
2021/09/12 06:59:21;;;;;;;30.17;21.45;;;18.20;99.90;;;;;;5064742;28;20450;-67
2021/09/12 07:01:47;;;;;;;29.90;21.40;;;18.30;99.90;;;;;;5061075;28;20082;-67
2021/09/12 07:04:12;;;;;;;36.35;23.05;;;18.30;99.90;;;;;;5061551;28;20029;-67
2021/09/12 07:06:38;;;;;;;31.13;21.30;;;18.40;99.90;;;;;;5060115;28;20485;-67
2021/09/12 07:09:04;;;;;;;30.23;19.95;;;18.40;99.90;;;;;;5061564;28;20402;-68
2021/09/12 07:11:30;;;;;;;32.20;21.13;;;18.40;99.90;;;;;;5061514;28;20475;-67
2021/09/12 07:13:56;;;;;;;36.08;21.55;;;18.50;99.90;;;;;;5063116;28;20448;-67
2021/09/12 07:16:21;;;;;;;32.05;20.25;;;18.50;99.90;;;;;;5060669;28;20032;-68
2021/09/12 07:18:47;;;;;;;30.95;20.17;;;18.50;99.90;;;;;;5061563;28;20025;-67
2021/09/12 07:21:13;;;;;;;28.80;18.88;;;18.40;99.90;;;;;;5060874;28;20487;-67
2021/09/12 07:23:39;;;;;;;26.40;18.52;;;18.50;99.90;;;;;;5059361;28;20455;-67
2021/09/12 07:26:04;;;;;;;32.90;19.63;;;18.50;99.90;;;;;;5082055;28;20024;-67
2021/09/12 07:28:30;;;;;;;29.33;19.58;;;18.50;99.90;;;;;;5059994;28;20028;-68
2021/09/12 07:30:56;;;;;;;31.30;18.40;;;18.50;99.90;;;;;;5064151;28;20040;-67
2021/09/12 07:33:22;;;;;;;30.40;18.58;;;18.50;99.90;;;;;;5061109;28;20086;-67
2021/09/12 07:35:48;;;;;;;27.45;16.98;;;18.50;99.90;;;;;;5060303;28;20024;-67
2021/09/12 07:38:14;;;;;;;30.23;20.05;;;18.50;99.90;;;;;;5061346;28;20032;-67
2021/09/12 07:40:40;;;;;;;30.70;19.80;;;18.50;99.90;;;;;;5059958;28;20041;-67
2021/09/12 07:43:05;;;;;;;27.02;19.27;;;18.50;99.90;;;;;;5060104;28;20029;-67
2021/09/12 07:45:31;;;;;;;27.67;18.27;;;18.50;99.90;;;;;;5060218;28;20056;-67
2021/09/12 07:47:57;;;;;;;29.95;19.13;;;18.50;99.90;;;;;;5058362;28;20082;-67
2021/09/12 07:50:22;;;;;;;28.58;20.58;;;18.50;99.90;;;;;;5063931;28;20043;-67
2021/09/12 07:52:48;;;;;;;26.85;18.25;;;18.50;99.90;;;;;;5060387;28;20071;-68
2021/09/12 07:55:15;;;;;;;26.48;17.98;;;18.60;99.90;;;;;;5059752;28;20040;-67
2021/09/12 07:57:41;;;;;;;24.10;16.98;;;18.70;99.90;;;;;;5057566;28;20495;-67
2021/09/12 08:00:09;;;;;;;27.15;16.60;;;18.70;99.90;;;;;;5058304;28;20056;-67
2021/09/12 08:02:34;;;;;;;30.63;19.27;;;18.70;99.90;;;;;;5058440;28;20033;-68
2021/09/12 08:05:00;;;;;;;28.48;17.80;;;18.70;99.90;;;;;;5061731;28;20037;-68
2021/09/12 08:07:26;;;;;;;26.58;17.35;;;18.70;99.90;;;;;;5058847;28;20025;-68
2021/09/12 08:09:52;;;;;;;23.20;15.55;;;18.70;99.90;;;;;;5060831;28;20492;-67
2021/09/12 08:12:18;;;;;;;29.88;19.17;;;18.70;99.90;;;;;;5060720;28;20317;-67
2021/09/12 08:14:43;;;;;;;27.65;18.98;;;18.70;99.90;;;;;;5063349;28;20437;-67
2021/09/12 08:17:09;;;;;;;27.90;17.02;;;18.70;99.90;;;;;;5062646;28;20553;-67
2021/09/12 08:19:35;;;;;;;32.88;19.75;;;18.80;99.90;;;;;;5065403;28;20041;-67
2021/09/12 08:22:00;;;;;;;24.73;16.63;;;18.80;99.90;;;;;;5062185;28;20381;-68
2021/09/12 08:24:26;;;;;;;32.63;20.25;;;18.80;99.90;;;;;;5065867;28;20082;-67
2021/09/12 08:26:52;;;;;;;25.42;17.33;;;18.80;99.90;;;;;;5065208;28;20753;-67
2021/09/12 08:29:17;;;;;;;26.67;18.20;;;18.90;99.90;;;;;;5062912;28;20475;-67
2021/09/12 08:31:43;;;;;;;33.38;20.52;;;18.90;99.90;;;;;;5062256;28;20032;-67
2021/09/12 08:34:09;;;;;;;31.65;18.83;;;19.00;99.90;;;;;;5065635;28;20025;-67
2021/09/12 08:36:35;;;;;;;25.52;16.95;;;19.10;99.90;;;;;;5064220;28;20771;-67
2021/09/12 08:39:00;;;;;;;29.80;18.55;;;19.20;99.90;;;;;;5062681;28;20033;-68
2021/09/12 08:41:26;;;;;;;33.97;19.60;;;19.20;99.90;;;;;;5063905;28;20025;-67
2021/09/12 08:43:52;;;;;;;24.48;16.95;;;19.30;99.90;;;;;;5062792;28;20033;-68
2021/09/12 08:46:19;;;;;;;26.27;17.35;;;19.30;99.90;;;;;;5062619;28;20021;-67
2021/09/12 08:48:45;;;;;;;26.08;17.63;;;19.30;99.90;;;;;;5061687;28;20028;-68
2021/09/12 08:51:11;;;;;;;25.30;17.45;;;19.30;99.90;;;;;;5064070;28;20028;-67
2021/09/12 08:53:37;;;;;;;26.77;16.98;;;19.30;99.90;;;;;;5061325;28;20310;-68
2021/09/12 08:56:03;;;;;;;28.98;16.98;;;19.30;99.90;;;;;;5064581;28;20482;-67
2021/09/12 08:58:28;;;;;;;26.02;16.35;;;19.20;99.90;;;;;;5063709;28;20041;-68
2021/09/12 09:00:59;;;;;;;25.00;17.13;;;19.10;99.90;;;;;;5063263;28;20565;-68
2021/09/12 09:03:42;;;;;;;25.67;17.55;;;19.10;99.90;;;;;;5063214;28;20066;-67
2021/09/12 09:06:16;;;;;;;28.48;17.95;;;19.00;99.90;;;;;;5063592;28;20036;-67
2021/09/12 09:08:54;;;;;;;24.80;16.55;;;19.00;99.90;;;;;;5061747;28;20036;-67
2021/09/12 09:11:39;;;;;;;25.77;16.08;;;19.00;99.90;;;;;;5067144;28;20074;-67
2021/09/12 09:14:20;;;;;;;23.23;16.10;;;19.00;99.90;;;;;;5066006;28;20134;-67
2021/09/12 09:16:48;;;;;;;23.73;15.60;;;19.10;99.90;;;;;;5064744;28;20028;-67
2021/09/12 09:19:14;;;;;;;20.27;13.65;;;19.10;99.90;;;;;;5064197;28;20032;-67
2021/09/12 09:21:44;;;;;;;31.35;17.35;;;19.20;99.90;;;;;;5065634;28;20034;-67
2021/09/12 09:24:22;;;;;;;21.50;13.93;;;19.20;99.90;;;;;;5064300;28;20111;-68
2021/09/12 09:26:51;;;;;;;27.58;15.80;;;19.20;99.90;;;;;;5063377;28;20032;-66
2021/09/12 09:29:25;;;;;;;22.67;15.50;;;19.20;99.90;;;;;;5062867;28;20043;-68
2021/09/12 09:32:07;;;;;;;25.23;16.23;;;19.20;99.90;;;;;;5062520;28;20056;-67
2021/09/12 09:34:34;;;;;;;24.58;16.65;;;19.10;99.90;;;;;;5065680;28;20545;-68
2021/09/12 09:37:20;;;;;;;21.67;14.68;;;19.10;99.90;;;;;;5064249;28;20025;-67
2021/09/12 09:39:49;;;;;;;20.38;14.60;;;19.20;99.90;;;;;;5064169;28;20052;-67
2021/09/12 09:42:33;;;;;;;21.95;14.00;;;19.10;99.90;;;;;;5062162;28;20250;-68
2021/09/12 09:45:01;;;;;;;22.17;13.05;;;19.20;99.90;;;;;;5061650;28;20024;-68
2021/09/12 09:47:27;;;;;;;21.08;14.10;;;19.20;99.90;;;;;;5060726;28;20033;-68
2021/09/12 09:50:08;;;;;;;19.45;13.35;;;19.30;99.90;;;;;;5062533;28;20341;-68
2021/09/12 09:52:34;;;;;;;20.60;13.20;;;19.30;99.90;;;;;;5060434;28;20495;-67
2021/09/12 09:55:01;;;;;;;24.70;14.38;;;19.30;99.90;;;;;;5062899;28;20119;-68
2021/09/12 09:57:27;;;;;;;17.98;12.35;;;19.20;99.90;;;;;;5062725;28;20040;-67
2021/09/12 09:59:53;;;;;;;22.42;13.70;;;19.30;99.90;;;;;;5063897;28;20242;-68
2021/09/12 10:02:19;;;;;;;22.85;13.20;;;19.30;99.90;;;;;;5063160;28;20490;-68
2021/09/12 10:04:45;;;;;;;18.80;13.18;;;19.20;99.90;;;;;;5062992;28;20467;-67
2021/09/12 10:07:12;;;;;;;19.40;12.48;;;19.30;99.90;;;;;;5062965;28;20035;-67
2021/09/12 10:09:38;;;;;;;17.77;11.27;;;19.40;99.90;;;;;;5062532;28;20024;-68
2021/09/12 10:12:09;;;;;;;17.02;11.55;;;19.50;99.90;;;;;;5060293;28;20025;-68
2021/09/12 10:14:46;;;;;;;17.95;11.18;;;19.70;99.90;;;;;;5064327;28;20040;-67
2021/09/12 10:17:14;;;;;;;20.02;10.75;;;19.80;99.90;;;;;;5062251;28;20470;-67
2021/09/12 10:19:43;;;;;;;18.52;10.65;;;19.80;99.90;;;;;;5059982;28;20044;-68
2021/09/12 10:22:19;;;;;;;20.92;12.15;;;19.90;99.90;;;;;;5062522;28;20028;-67
2021/09/12 10:25:03;;;;;;;17.55;10.73;;;19.90;99.60;;;;;;5061800;28;20096;-67
2021/09/12 10:27:36;;;;;;;17.65;10.85;;;20.10;99.90;;;;;;5063486;28;20020;-68
2021/09/12 10:30:24;;;;;;;14.15;10.63;;;20.20;99.90;;;;;;5060550;28;20033;-68
2021/09/12 10:32:51;;;;;;;18.60;11.52;;;20.30;99.40;;;;;;5061016;28;20103;-67
2021/09/12 10:35:17;;;;;;;20.67;11.82;;;20.50;99.60;;;;;;5060046;28;20033;-67
2021/09/12 10:37:57;;;;;;;12.70;9.32;;;20.60;97.90;;;;;;5060643;28;20389;-67
2021/09/12 10:40:23;;;;;;;16.33;11.30;;;20.80;98.50;;;;;;5061217;28;20538;-67
2021/09/12 10:42:49;;;;;;;14.95;9.80;;;20.90;97.40;;;;;;5060536;28;20036;-68
2021/09/12 10:45:20;;;;;;;14.27;10.50;;;21.10;98.10;;;;;;5061269;28;20029;-67
2021/09/12 10:47:46;;;;;;;;;;;21.30;97.70;;;;;;5062962;28;20039;-67
2021/09/12 10:50:37;;;;;;;17.73;10.13;;;21.40;97.90;;;;;;5060145;28;19908;-67
2021/09/12 10:53:03;;;;;;;14.68;9.13;;;21.30;95.10;;;;;;5059817;28;20064;-67
2021/09/12 10:55:28;;;;;;;9.65;7.72;;;21.10;96.40;;;;;;5062043;28;20488;-67
2021/09/12 10:57:54;;;;;;;12.40;8.20;;;20.90;97.10;;;;;;5062813;28;20036;-67
2021/09/12 11:00:20;;;;;;;11.40;8.30;;;20.80;97.40;;;;;;5063551;28;20127;-67
2021/09/12 11:02:49;;;;;;;13.98;8.93;;;20.60;97.60;;;;;;5061696;28;20033;-67
2021/09/12 11:05:23;;;;;;;14.85;8.50;;;20.50;98.00;;;;;;5060922;28;20029;-67
2021/09/12 11:07:56;;;;;;;12.63;8.07;;;20.40;98.60;;;;;;5057156;28;20032;-67
2021/09/12 11:10:34;;;;;;;14.82;8.23;;;20.30;99.10;;;;;;5060471;28;20514;-68
2021/09/12 11:13:00;;;;;;;16.60;9.20;;;20.20;99.50;;;;;;5059260;28;20025;-67
2021/09/12 11:15:26;;;;;;;11.32;8.15;;;20.10;99.60;;;;;;5062082;28;20055;-67
2021/09/12 11:17:53;;;;;;;11.65;8.15;;;20.20;99.90;;;;;;5061748;28;20049;-67
2021/09/12 11:20:18;;;;;;;13.48;8.65;;;20.60;99.90;;;;;;5059955;28;20033;-68
2021/09/12 11:22:49;;;;;;;14.77;7.93;;;21.30;99.20;;;;;;5062314;28;20394;-68
2021/09/12 11:25:18;;;;;;;;;;;22.20;97.60;;;;;;5062382;28;20029;-68
2021/09/12 11:27:44;;;;;;;12.68;7.80;;;22.80;95.70;;;;;;5059755;28;19908;-68
2021/09/12 11:30:11;;;;;;;12.80;8.35;;;23.40;93.80;;;;;;5060413;28;20433;-68
2021/09/12 11:32:36;;;;;;;12.30;8.18;;;23.70;93.40;;;;;;5060281;28;20032;-68
2021/09/12 11:35:02;;;;;;;14.63;6.18;;;23.70;92.40;;;;;;5060488;28;20035;-68
2021/09/12 11:37:28;;;;;;;8.20;5.70;;;23.80;91.10;;;;;;5062469;28;20625;-67
2021/09/12 11:39:56;;;;;;;10.15;6.03;;;24.10;90.70;;;;;;5061009;28;20037;-68
2021/09/12 11:42:23;;;;;;;8.98;5.95;;;24.30;91.00;;;;;;5060074;28;20104;-67
2021/09/12 11:44:51;;;;;;;6.97;5.00;;;24.50;87.70;;;;;;5061580;28;20016;-68
2021/09/12 11:47:19;;;;;;;5.72;4.80;;;24.20;88.70;;;;;;5062723;28;20025;-67
2021/09/12 11:50:10;;;;;;;12.63;5.90;;;23.90;88.90;;;;;;5063661;28;20064;-68
2021/09/12 11:52:38;;;;;;;9.65;5.95;;;23.30;87.20;;;;;;5059826;28;20037;-67
2021/09/12 11:55:28;;;;;;;6.35;4.53;;;22.60;89.40;;;;;;5064467;28;20049;-68
2021/09/12 11:58:06;;;;;;;8.98;5.15;;;22.20;91.60;;;;;;5063694;28;20033;-67
2021/09/12 12:00:46;;;;;;;10.80;6.30;;;21.80;92.10;;;;;;5063603;28;20107;-68
2021/09/12 12:03:15;;;;;;;13.50;6.22;;;21.60;91.80;;;;;;5064807;28;20023;-68
2021/09/12 12:05:46;;;;;;;14.02;8.02;;;21.60;93.00;;;;;;5063726;28;20025;-68
2021/09/12 12:08:16;;;;;;;31.63;14.55;;;21.80;93.90;;;;;;5063885;28;20032;-67
2021/09/12 12:10:42;;;;;;;18.75;10.48;;;21.80;93.10;;;;;;5062511;28;20032;-68
2021/09/12 12:13:09;;;;;;;20.20;11.07;;;22.00;94.00;;;;;;5063078;28;20033;-67
2021/09/12 12:15:43;;;;;;;14.82;8.40;;;22.40;94.00;;;;;;5065313;28;20039;-67
2021/09/12 12:18:19;;;;;;;11.75;6.28;;;22.90;92.60;;;;;;5064000;28;20028;-67
2021/09/12 12:20:45;;;;;;;13.05;6.65;;;23.50;92.20;;;;;;5063446;28;20083;-68
2021/09/12 12:23:16;;;;;;;10.00;5.43;;;23.70;90.00;;;;;;5065102;28;20036;-67
2021/09/12 12:25:44;;;;;;;8.73;4.72;;;23.90;85.60;;;;;;5063504;28;20111;-67
2021/09/12 12:28:17;;;;;;;6.13;4.50;;;24.20;89.50;;;;;;5064318;28;20035;-67